Ashkum, Illinois
Current Conditions -  °F | °C
As of 9:35 PM on Friday 19 Dec 2014 (Local Time) from KIKK Reporting Station
Overcast Overcast  
Wind Chill: -1°   Ceiling: 2700
Heat Index: -1°   Visibility: 10mi
Dew Point: -3°   Wind: 0mph
Humidity: 89%   Direction: NA
Pressure: 30.28"   Gusts: NA
Location:  40.88°N, 87.96°W
Report Text: KIKK 200335Z AUTO 00000KT 10SM OVC027 M01/M03 A3028 RMK AO2 T10101026
Loading
Personal Weather Stations






























Interactive Weather Map New forecast layout! Learn more

10-Day Weather Forecast

Advertisements
Track Severe Weather on mobile